Time;durP1;ratioP1;P1;durP2;ratioP2;P2;SDS_P1;SDS_P2;PMS_P1;PMS_P2;Temp;Humidity;BMP_temperature;BMP_pressure;BME280_temperature;BME280_humidity;BME280_pressure;Samples;Min_cycle;Max_cycle;Signal;HPM_P1;HPM_P2
2024/01/28 00:00:55;;;;;;;29.50;10.97;;;;;;;;;;6126758;23;20153;-92
2024/01/28 00:04:02;;;;;;;25.87;9.63;;;;;;;;;;6127041;23;20169;-92
2024/01/28 00:07:08;;;;;;;50.40;11.77;;;;;;;;;;6125167;23;20222;-93
2024/01/28 00:10:14;;;;;;;35.20;10.67;;;;;;;;;;6125581;23;20213;-91
2024/01/28 00:13:23;;;;;;;32.80;10.83;;;;;;;;;;6125700;23;20173;-91
2024/01/28 00:16:30;;;;;;;32.33;9.90;;;;;;;;;;6108190;23;20193;-92
2024/01/28 00:19:37;;;;;;;70.50;11.27;;;;;;;;;;6096655;23;20219;-93
2024/01/28 00:22:42;;;;;;;27.47;10.00;;;;;;;;;;6096079;23;20205;-92
2024/01/28 00:25:47;;;;;;;29.90;10.07;;;;;;;;;;6098463;23;20240;-91
2024/01/28 00:28:52;;;;;;;54.87;10.13;;;;;;;;;;6098145;23;20185;-91
2024/01/28 00:32:02;;;;;;;66.13;11.27;;;;;;;;;;6097158;23;20173;-91
2024/01/28 00:35:09;;;;;;;36.00;9.93;;;;;;;;;;6096599;23;20240;-90
2024/01/28 00:38:14;;;;;;;51.47;10.83;;;;;;;;;;6102025;23;20163;-92
2024/01/28 00:41:23;;;;;;;43.90;10.30;;;;;;;;;;6097645;23;20223;-91
2024/01/28 00:44:28;;;;;;;54.00;10.67;;;;;;;;;;6096995;23;20608;-91
2024/01/28 00:47:34;;;;;;;55.77;10.83;;;;;;;;;;6096965;23;20203;-91
2024/01/28 00:50:41;;;;;;;59.47;11.67;;;;;;;;;;6097415;23;20182;-91
2024/01/28 00:53:46;;;;;;;51.93;10.87;;;;;;;;;;6097031;23;20499;-91
2024/01/28 00:56:52;;;;;;;41.00;10.17;;;;;;;;;;6098052;23;20161;-91
2024/01/28 00:59:58;;;;;;;44.93;10.23;;;;;;;;;;6096644;23;20170;-93
2024/01/28 01:03:04;;;;;;;50.60;10.07;;;;;;;;;;6096281;23;20200;-91
2024/01/28 01:06:11;;;;;;;36.00;10.20;;;;;;;;;;6098032;23;20166;-93
2024/01/28 01:09:18;;;;;;;45.27;10.80;;;;;;;;;;6116452;23;20174;-92
2024/01/28 01:12:24;;;;;;;34.57;10.43;;;;;;;;;;6099095;23;20187;-92
2024/01/28 01:15:31;;;;;;;48.43;11.43;;;;;;;;;;6116125;23;20264;-92
2024/01/28 01:18:37;;;;;;;43.43;10.87;;;;;;;;;;6099589;23;20185;-91
2024/01/28 01:21:50;;;;;;;64.50;11.00;;;;;;;;;;6101697;23;20196;-93
2024/01/28 01:24:55;;;;;;;46.70;10.73;;;;;;;;;;6096839;23;20194;-92
2024/01/28 01:28:01;;;;;;;34.27;10.00;;;;;;;;;;6097444;23;20161;-91
2024/01/28 01:31:06;;;;;;;62.50;10.10;;;;;;;;;;6097858;23;20170;-92
2024/01/28 01:34:12;;;;;;;108.27;12.27;;;;;;;;;;6096273;23;20185;-93
2024/01/28 01:37:21;;;;;;;99.73;12.37;;;;;;;;;;6097867;23;20194;-91
2024/01/28 01:40:26;;;;;;;116.37;12.43;;;;;;;;;;6100160;23;20165;-93
2024/01/28 01:43:32;;;;;;;156.83;14.30;;;;;;;;;;6100083;23;20543;-91
2024/01/28 01:46:39;;;;;;;81.53;12.00;;;;;;;;;;6098964;23;20166;-93
2024/01/28 01:49:45;;;;;;;180.43;13.83;;;;;;;;;;6099403;23;20179;-93
2024/01/28 01:52:52;;;;;;;119.93;12.60;;;;;;;;;;6097364;23;20149;-90
2024/01/28 01:55:58;;;;;;;52.53;11.50;;;;;;;;;;6098393;23;20179;-90
2024/01/28 01:59:04;;;;;;;138.33;12.73;;;;;;;;;;6097598;23;20222;-94
2024/01/28 02:02:10;;;;;;;81.47;11.23;;;;;;;;;;6096997;23;20177;-92
2024/01/28 02:05:15;;;;;;;66.60;11.73;;;;;;;;;;6097558;23;20215;-94
2024/01/28 02:08:23;;;;;;;60.83;11.60;;;;;;;;;;6097749;23;20172;-91
2024/01/28 02:11:28;;;;;;;77.77;11.73;;;;;;;;;;6095214;23;20173;-91
2024/01/28 02:14:34;;;;;;;119.27;11.60;;;;;;;;;;6095404;23;20218;-91
2024/01/28 02:17:39;;;;;;;33.67;9.70;;;;;;;;;;6125184;23;20511;-92
2024/01/28 02:20:45;;;;;;;22.13;9.73;;;;;;;;;;6125755;23;20165;-91
2024/01/28 02:23:52;;;;;;;29.03;10.43;;;;;;;;;;6124696;23;20241;-92
2024/01/28 02:26:58;;;;;;;31.83;9.60;;;;;;;;;;6124344;23;20173;-93
2024/01/28 02:30:04;;;;;;;51.60;10.87;;;;;;;;;;6124955;23;20195;-92
2024/01/28 02:33:09;;;;;;;23.03;9.20;;;;;;;;;;6126610;23;20248;-93
2024/01/28 02:36:14;;;;;;;31.80;10.70;;;;;;;;;;6126418;23;20162;-92
2024/01/28 02:39:21;;;;;;;30.90;10.47;;;;;;;;;;6127340;23;20157;-91
2024/01/28 02:42:27;;;;;;;31.10;9.87;;;;;;;;;;6126673;23;20197;-91
2024/01/28 02:45:32;;;;;;;30.73;10.10;;;;;;;;;;6125131;23;20170;-92
2024/01/28 02:48:38;;;;;;;28.37;10.10;;;;;;;;;;6130117;23;20169;-91
2024/01/28 02:51:45;;;;;;;35.57;9.93;;;;;;;;;;6125312;23;20170;-90
2024/01/28 02:54:55;;;;;;;70.93;10.33;;;;;;;;;;6124613;23;20177;-94
2024/01/28 02:58:00;;;;;;;25.10;10.80;;;;;;;;;;6125430;23;20211;-91
2024/01/28 03:01:05;;;;;;;28.27;9.77;;;;;;;;;;6126531;23;20190;-92
2024/01/28 03:04:11;;;;;;;29.57;9.73;;;;;;;;;;6126656;23;20250;-91
2024/01/28 03:07:16;;;;;;;23.93;9.73;;;;;;;;;;6128057;23;20165;-92
2024/01/28 03:10:26;;;;;;;21.03;9.50;;;;;;;;;;6128512;23;20632;-92
2024/01/28 03:13:31;;;;;;;26.60;9.80;;;;;;;;;;6129674;23;20190;-92
2024/01/28 03:16:37;;;;;;;24.63;8.73;;;;;;;;;;6110748;23;20189;-90
2024/01/28 03:19:43;;;;;;;25.20;8.50;;;;;;;;;;6099967;23;20162;-91
2024/01/28 03:22:48;;;;;;;22.43;8.70;;;;;;;;;;6100076;23;20193;-92
2024/01/28 03:25:55;;;;;;;20.37;8.47;;;;;;;;;;6099539;23;20254;-92
2024/01/28 03:29:00;;;;;;;18.67;7.93;;;;;;;;;;6099440;23;20190;-90
2024/01/28 03:32:06;;;;;;;14.93;7.50;;;;;;;;;;6099019;23;20173;-91
2024/01/28 03:35:12;;;;;;;15.97;7.60;;;;;;;;;;6100603;23;20191;-91
2024/01/28 03:38:17;;;;;;;19.83;8.17;;;;;;;;;;6100753;23;20194;-91
2024/01/28 03:41:24;;;;;;;15.00;8.40;;;;;;;;;;6100102;23;20174;-92
2024/01/28 03:44:29;;;;;;;18.20;7.80;;;;;;;;;;6100013;23;20725;-91
2024/01/28 03:47:34;;;;;;;23.43;8.53;;;;;;;;;;6098243;23;20166;-92
2024/01/28 03:50:40;;;;;;;26.20;9.20;;;;;;;;;;6097917;23;20222;-91
2024/01/28 03:53:45;;;;;;;29.53;11.07;;;;;;;;;;6097972;23;20178;-92
2024/01/28 03:56:52;;;;;;;21.73;10.00;;;;;;;;;;6097380;23;20170;-92
2024/01/28 03:59:58;;;;;;;28.87;10.10;;;;;;;;;;6097653;23;20173;-91
2024/01/28 04:03:03;;;;;;;24.67;10.20;;;;;;;;;;6097095;23;20214;-92
2024/01/28 04:06:09;;;;;;;21.30;9.17;;;;;;;;;;6096339;23;20178;-93
2024/01/28 04:09:14;;;;;;;22.83;9.13;;;;;;;;;;6100447;23;20154;-90
2024/01/28 04:12:22;;;;;;;23.60;9.77;;;;;;;;;;6103140;23;20203;-93
2024/01/28 04:15:28;;;;;;;21.87;8.90;;;;;;;;;;6102304;23;20210;-91
2024/01/28 04:18:37;;;;;;;22.33;10.17;;;;;;;;;;6106653;23;20214;-93
2024/01/28 04:25:10;;;;;;;34.50;10.40;;;;;;;;;;6105991;23;20174;-91
2024/01/28 04:28:17;;;;;;;29.90;10.53;;;;;;;;;;6103777;23;20169;-94
2024/01/28 04:31:27;;;;;;;24.73;9.30;;;;;;;;;;6118597;23;20154;-94
2024/01/28 04:34:32;;;;;;;23.63;9.50;;;;;;;;;;6097525;23;20174;-89
2024/01/28 04:37:37;;;;;;;23.07;9.77;;;;;;;;;;6098606;23;20195;-92
2024/01/28 04:40:43;;;;;;;24.20;9.13;;;;;;;;;;6097657;23;20178;-93
2024/01/28 04:43:50;;;;;;;28.30;8.97;;;;;;;;;;6098702;23;20247;-92
2024/01/28 04:46:57;;;;;;;43.27;8.97;;;;;;;;;;6100025;23;20147;-91
2024/01/28 04:50:02;;;;;;;26.13;9.50;;;;;;;;;;6098681;23;20491;-90
2024/01/28 04:53:07;;;;;;;29.80;10.40;;;;;;;;;;6097022;23;20174;-93
2024/01/28 04:56:16;;;;;;;25.07;8.27;;;;;;;;;;6097907;23;20621;-92
2024/01/28 04:59:24;;;;;;;24.03;8.97;;;;;;;;;;6097382;23;20198;-92
2024/01/28 05:02:30;;;;;;;18.90;9.00;;;;;;;;;;6099563;23;20158;-91
2024/01/28 05:05:35;;;;;;;19.67;8.43;;;;;;;;;;6099740;23;20169;-92
2024/01/28 05:08:41;;;;;;;19.80;8.07;;;;;;;;;;6100390;23;20174;-93
2024/01/28 05:11:46;;;;;;;21.73;8.77;;;;;;;;;;6099818;23;20166;-90
2024/01/28 05:14:54;;;;;;;18.27;7.47;;;;;;;;;;6099720;23;20153;-91
2024/01/28 05:17:59;;;;;;;20.10;7.83;;;;;;;;;;6099067;23;20166;-92
2024/01/28 05:21:05;;;;;;;23.50;8.33;;;;;;;;;;6097594;23;20222;-93
2024/01/28 05:24:17;;;;;;;25.63;9.10;;;;;;;;;;6100702;23;20197;-90
2024/01/28 05:27:24;;;;;;;20.03;9.03;;;;;;;;;;6103253;23;20210;-91
2024/01/28 05:30:32;;;;;;;23.50;8.70;;;;;;;;;;6100487;23;20249;-91
2024/01/28 05:33:37;;;;;;;18.10;7.60;;;;;;;;;;6098254;23;20221;-93
2024/01/28 05:36:44;;;;;;;19.50;6.93;;;;;;;;;;6098789;23;20173;-92
2024/01/28 05:39:49;;;;;;;22.07;8.33;;;;;;;;;;6098246;23;20297;-91
2024/01/28 05:42:54;;;;;;;21.40;8.57;;;;;;;;;;6100526;23;20177;-91
2024/01/28 05:46:01;;;;;;;22.03;9.03;;;;;;;;;;6100128;23;20153;-92
2024/01/28 05:49:10;;;;;;;22.97;8.60;;;;;;;;;;6099888;23;20189;-92
2024/01/28 05:52:16;;;;;;;19.67;8.20;;;;;;;;;;6096890;23;20165;-90
2024/01/28 05:55:21;;;;;;;20.10;8.20;;;;;;;;;;6096960;23;20170;-89
2024/01/28 05:58:27;;;;;;;19.73;7.67;;;;;;;;;;6096558;23;20168;-92
2024/01/28 06:01:34;;;;;;;22.30;8.27;;;;;;;;;;6096489;23;20254;-93
2024/01/28 06:04:40;;;;;;;19.47;7.70;;;;;;;;;;6097794;23;20194;-91
2024/01/28 06:07:45;;;;;;;16.53;8.00;;;;;;;;;;6097115;23;20166;-90
2024/01/28 06:10:51;;;;;;;15.90;8.10;;;;;;;;;;6096505;23;20154;-89
2024/01/28 06:13:57;;;;;;;20.60;7.70;;;;;;;;;;6098879;23;20173;-94
2024/01/28 06:17:04;;;;;;;19.13;8.10;;;;;;;;;;6097319;23;20193;-92
2024/01/28 06:20:10;;;;;;;22.90;8.43;;;;;;;;;;6096932;23;20165;-89
2024/01/28 06:23:16;;;;;;;19.53;8.63;;;;;;;;;;6099280;23;20173;-92
2024/01/28 06:26:22;;;;;;;16.70;7.77;;;;;;;;;;6097361;23;20222;-91
2024/01/28 06:29:28;;;;;;;21.33;8.00;;;;;;;;;;6098421;23;20158;-93
2024/01/28 06:32:36;;;;;;;21.23;8.43;;;;;;;;;;6097332;23;20234;-92
2024/01/28 06:35:41;;;;;;;19.27;8.00;;;;;;;;;;6096977;23;20174;-93
2024/01/28 06:38:47;;;;;;;22.43;8.20;;;;;;;;;;6097942;23;20227;-93
2024/01/28 06:41:53;;;;;;;25.53;7.97;;;;;;;;;;6098939;23;20254;-92
2024/01/28 06:45:00;;;;;;;16.73;7.37;;;;;;;;;;6103339;23;20184;-92
2024/01/28 06:48:10;;;;;;;18.33;7.40;;;;;;;;;;6100133;23;20170;-92
2024/01/28 06:51:15;;;;;;;20.03;7.40;;;;;;;;;;6099804;23;20170;-91
2024/01/28 06:54:21;;;;;;;16.00;7.70;;;;;;;;;;6100126;23;20567;-92
2024/01/28 06:57:27;;;;;;;18.13;8.00;;;;;;;;;;6100009;23;20165;-90
2024/01/28 07:00:34;;;;;;;21.07;7.90;;;;;;;;;;6100735;23;20153;-93
2024/01/28 07:03:44;;;;;;;17.50;7.70;;;;;;;;;;6101773;23;20197;-92
2024/01/28 07:06:49;;;;;;;23.57;7.73;;;;;;;;;;6099326;23;20191;-93
2024/01/28 07:09:57;;;;;;;23.70;8.80;;;;;;;;;;6099654;23;20727;-93
2024/01/28 07:13:03;;;;;;;20.17;8.03;;;;;;;;;;6101804;23;20187;-91
2024/01/28 07:16:10;;;;;;;18.13;8.13;;;;;;;;;;6102171;23;20197;-90
2024/01/28 07:19:17;;;;;;;20.77;8.43;;;;;;;;;;6100424;23;20226;-93
2024/01/28 07:22:23;;;;;;;18.53;8.07;;;;;;;;;;6097918;23;20246;-93
2024/01/28 07:25:28;;;;;;;21.63;8.63;;;;;;;;;;6098726;23;20180;-92
2024/01/28 07:28:34;;;;;;;25.90;8.50;;;;;;;;;;6098949;23;20162;-92
2024/01/28 07:31:40;;;;;;;22.13;8.43;;;;;;;;;;6099771;23;20170;-91
2024/01/28 07:34:47;;;;;;;16.40;8.10;;;;;;;;;;6101263;23;20243;-92
2024/01/28 07:37:53;;;;;;;17.90;8.37;;;;;;;;;;6102134;23;20166;-91
2024/01/28 07:40:59;;;;;;;17.70;8.80;;;;;;;;;;6100274;23;20149;-90
2024/01/28 07:44:05;;;;;;;21.37;10.47;;;;;;;;;;6100865;23;20201;-92
2024/01/28 07:47:11;;;;;;;23.33;8.80;;;;;;;;;;6100120;23;20207;-91
2024/01/28 07:50:19;;;;;;;23.53;8.70;;;;;;;;;;6100637;23;20198;-92
2024/01/28 07:53:25;;;;;;;21.50;8.70;;;;;;;;;;6100093;23;20170;-92
2024/01/28 07:56:36;;;;;;;17.87;8.30;;;;;;;;;;6100066;23;20211;-92
2024/01/28 07:59:46;;;;;;;23.57;7.80;;;;;;;;;;6102607;23;20311;-93
2024/01/28 11:13:20;;;;;;;21.10;5.27;;;;;;;;;;6073408;23;20225;-95
2024/01/28 11:16:30;;;;;;;15.57;4.37;;;;;;;;;;6080547;23;20236;-91
2024/01/28 11:55:00;;;;;;;12.47;4.40;;;;;;;;;;6179790;23;20181;-92
2024/01/28 11:58:07;;;;;;;12.20;4.33;;;;;;;;;;6161740;23;20168;-93
2024/01/28 12:04:34;;;;;;;15.13;4.17;;;;;;;;;;6160978;23;20196;-92
2024/01/28 12:07:41;;;;;;;13.03;4.03;;;;;;;;;;6163398;23;20152;-92
2024/01/28 12:13:41;;;;;;;16.30;5.20;;;;;;;;;;6205779;22;20192;-93
2024/01/28 12:16:48;;;;;;;18.83;5.77;;;;;;;;;;6189720;22;20200;-92
2024/01/28 12:19:56;;;;;;;10.00;4.20;;;;;;;;;;6189701;22;20220;-92
2024/01/28 19:53:10;;;;;;;36.70;13.03;;;;;;;;;;6157302;23;20208;-93
2024/01/28 19:56:18;;;;;;;29.87;11.63;;;;;;;;;;6192885;23;20196;-92
2024/01/28 19:59:27;;;;;;;30.43;11.23;;;;;;;;;;6193534;23;20164;-93
2024/01/28 23:03:21;;;;;;;19.30;7.53;;;;;;;;;;6072046;23;20199;-89
2024/01/28 23:06:28;;;;;;;17.17;7.90;;;;;;;;;;6077094;23;20203;-90
2024/01/28 23:09:34;;;;;;;22.23;8.07;;;;;;;;;;6061677;23;20232;-91
2024/01/28 23:12:40;;;;;;;18.53;7.60;;;;;;;;;;6078462;23;20175;-91
2024/01/28 23:15:46;;;;;;;20.80;7.73;;;;;;;;;;6077114;23;20171;-90
2024/01/28 23:19:13;;;;;;;23.73;8.53;;;;;;;;;;6060388;23;20167;-92
2024/01/28 23:22:22;;;;;;;20.23;7.47;;;;;;;;;;6074216;23;20223;-93
2024/01/28 23:25:28;;;;;;;20.83;7.77;;;;;;;;;;6075315;23;20247;-90
2024/01/28 23:28:33;;;;;;;18.20;7.00;;;;;;;;;;6074650;23;20171;-90
2024/01/28 23:31:38;;;;;;;18.20;7.10;;;;;;;;;;6074566;23;20631;-92
2024/01/28 23:34:46;;;;;;;24.73;7.00;;;;;;;;;;6057846;23;20176;-92
2024/01/28 23:37:56;;;;;;;16.93;6.47;;;;;;;;;;6077327;23;20224;-92
2024/01/28 23:41:01;;;;;;;19.20;6.53;;;;;;;;;;6077514;23;20166;-91
2024/01/28 23:44:07;;;;;;;19.07;6.90;;;;;;;;;;6060133;23;20159;-93
2024/01/28 23:47:13;;;;;;;18.43;7.13;;;;;;;;;;6077269;23;20184;-92
2024/01/28 23:50:21;;;;;;;23.03;6.63;;;;;;;;;;6075989;23;20175;-92
2024/01/28 23:53:26;;;;;;;15.87;5.83;;;;;;;;;;6060503;23;20155;-92
2024/01/28 23:56:32;;;;;;;19.90;6.77;;;;;;;;;;6076813;23;20200;-91
2024/01/28 23:59:38;;;;;;;15.03;5.63;;;;;;;;;;6078862;23;20203;-92
